createdAt,value
2019-03-17T00:01:18.474Z,74.00
2019-03-17T00:03:47.241Z,74.00
2019-03-17T00:06:15.977Z,74.20
2019-03-17T00:08:44.693Z,74.20
2019-03-17T00:11:13.546Z,74.30
2019-03-17T00:13:42.270Z,74.20
2019-03-17T00:16:11.102Z,74.10
2019-03-17T00:18:39.826Z,74.30
2019-03-17T00:21:08.645Z,74.40
2019-03-17T00:23:37.378Z,74.40
2019-03-17T00:26:06.170Z,74.30
2019-03-17T00:28:34.869Z,74.20
2019-03-17T00:31:03.679Z,74.10
2019-03-17T00:33:32.409Z,73.70
2019-03-17T00:36:01.121Z,73.50
2019-03-17T00:38:29.893Z,73.80
2019-03-17T00:40:58.593Z,73.70
2019-03-17T00:43:27.313Z,73.70
2019-03-17T00:45:56.113Z,73.20
2019-03-17T00:48:24.861Z,73.00
2019-03-17T00:50:53.649Z,72.80
2019-03-17T00:53:22.381Z,73.00
2019-03-17T00:55:51.171Z,73.00
2019-03-17T00:58:19.875Z,73.40
2019-03-17T01:00:49.529Z,73.20
2019-03-17T01:03:18.269Z,74.10
2019-03-17T01:05:47.013Z,73.30
2019-03-17T01:08:15.729Z,73.20
2019-03-17T01:10:44.478Z,73.20
2019-03-17T01:13:13.217Z,73.10
2019-03-17T01:15:41.988Z,73.00
2019-03-17T01:18:10.719Z,73.00
2019-03-17T01:20:39.493Z,73.00
2019-03-17T01:23:08.298Z,73.20
2019-03-17T01:25:37.031Z,73.20
2019-03-17T01:28:05.745Z,73.40
2019-03-17T01:30:34.613Z,72.90
2019-03-17T01:33:03.313Z,73.10
2019-03-17T01:35:32.778Z,73.10
2019-03-17T01:38:01.721Z,73.50
2019-03-17T01:40:30.413Z,73.30
2019-03-17T01:42:59.140Z,73.40
2019-03-17T01:45:27.921Z,73.20
2019-03-17T01:47:59.005Z,73.30
2019-03-17T01:50:30.557Z,73.40
2019-03-17T01:52:59.282Z,73.40
2019-03-17T01:55:28.086Z,73.60
2019-03-17T01:57:56.815Z,74.10
2019-03-17T02:00:25.630Z,73.90
2019-03-17T02:02:54.515Z,74.50
2019-03-17T02:05:23.236Z,74.60
2019-03-17T02:07:51.973Z,75.10
2019-03-17T02:10:20.677Z,75.30
2019-03-17T02:12:49.410Z,75.60
2019-03-17T02:15:18.213Z,76.00
2019-03-17T02:17:47.005Z,76.10
2019-03-17T02:20:15.793Z,76.70
2019-03-17T02:22:44.605Z,76.90
2019-03-17T02:25:15.465Z,77.60
2019-03-17T02:27:44.167Z,77.70
2019-03-17T02:30:13.162Z,78.00
2019-03-17T02:32:41.868Z,78.60
2019-03-17T02:35:10.671Z,78.90
2019-03-17T02:37:39.491Z,79.20
2019-03-17T02:40:08.294Z,80.00
2019-03-17T02:42:37.145Z,80.50
2019-03-17T02:45:06.398Z,80.80
2019-03-17T02:47:35.130Z,81.10
2019-03-17T02:50:04.243Z,81.60
2019-03-17T02:52:33.018Z,81.40
2019-03-17T02:55:01.724Z,81.80
2019-03-17T02:57:30.433Z,81.70
2019-03-17T02:59:59.190Z,82.80
2019-03-17T03:02:27.894Z,82.20
2019-03-17T03:04:56.598Z,82.70
2019-03-17T03:07:25.359Z,82.90
2019-03-17T03:09:54.074Z,82.80
2019-03-17T03:12:22.815Z,83.40
2019-03-17T03:14:51.543Z,83.50
2019-03-17T03:17:20.300Z,83.10
2019-03-17T03:19:48.999Z,83.40
2019-03-17T03:22:17.734Z,84.40
2019-03-17T03:24:46.490Z,83.60
2019-03-17T03:27:15.278Z,84.00
2019-03-17T03:29:44.078Z,83.90
2019-03-17T03:32:12.869Z,84.20
2019-03-17T03:34:41.570Z,84.20
2019-03-17T03:37:10.398Z,84.20
2019-03-17T03:39:39.114Z,84.50
2019-03-17T03:42:08.270Z,84.80
2019-03-17T03:44:37.020Z,84.70
2019-03-17T03:47:05.783Z,84.90
2019-03-17T03:49:34.490Z,85.20
2019-03-17T03:52:03.269Z,85.20
2019-03-17T03:54:32.170Z,85.30
2019-03-17T03:57:01.015Z,85.60
2019-03-17T03:59:29.930Z,85.30
2019-03-17T04:01:58.790Z,86.30
2019-03-17T04:04:27.486Z,85.70
2019-03-17T04:06:56.223Z,85.80
2019-03-17T04:09:24.922Z,85.80
2019-03-17T04:11:53.701Z,86.00
2019-03-17T04:14:22.463Z,86.30
2019-03-17T04:16:51.243Z,86.60
2019-03-17T04:19:20.180Z,86.60
2019-03-17T04:21:48.929Z,86.60
2019-03-17T04:24:17.648Z,86.60
2019-03-17T04:26:46.379Z,86.30
2019-03-17T04:29:15.196Z,85.90
2019-03-17T04:31:43.894Z,85.10
2019-03-17T04:34:12.649Z,85.00
2019-03-17T04:36:41.385Z,84.50
2019-03-17T04:39:10.117Z,84.30
2019-03-17T04:41:38.829Z,84.30
2019-03-17T04:44:19.893Z,84.40
2019-03-17T04:46:38.002Z,84.20
2019-03-17T04:49:06.830Z,83.40
2019-03-17T04:51:35.621Z,83.70
2019-03-17T04:54:04.431Z,83.40
2019-03-17T04:56:33.220Z,83.30
2019-03-17T04:59:01.918Z,83.10
2019-03-17T05:01:30.670Z,83.20
2019-03-17T05:03:59.381Z,83.80
2019-03-17T05:06:28.133Z,83.30
2019-03-17T05:08:56.847Z,82.70
2019-03-17T05:11:25.633Z,82.50
2019-03-17T05:13:54.410Z,81.60
2019-03-17T05:16:23.110Z,81.80
2019-03-17T05:18:51.810Z,81.90
2019-03-17T05:21:20.581Z,81.90
2019-03-17T05:23:49.281Z,82.30
2019-03-17T05:26:18.061Z,82.30
2019-03-17T05:28:46.801Z,81.00
2019-03-17T05:31:15.578Z,81.50
2019-03-17T05:33:44.324Z,81.20
2019-03-17T05:36:13.093Z,81.00
2019-03-17T05:38:41.829Z,81.10
2019-03-17T05:41:10.557Z,81.60
2019-03-17T05:43:39.275Z,81.50
2019-03-17T05:46:08.065Z,81.50
2019-03-17T05:48:36.776Z,81.50
2019-03-17T05:51:05.622Z,81.50
2019-03-17T05:53:34.381Z,81.70
2019-03-17T05:56:03.113Z,82.10
2019-03-17T05:58:31.849Z,82.30
2019-03-17T06:01:00.574Z,83.20
2019-03-17T06:03:29.293Z,83.10
2019-03-17T06:05:58.025Z,83.20
2019-03-17T06:08:26.743Z,83.20
2019-03-17T06:10:55.478Z,83.10
2019-03-17T06:13:24.185Z,83.10
2019-03-17T06:15:52.881Z,83.00
2019-03-17T06:18:21.594Z,83.30
2019-03-17T06:20:50.415Z,83.40
2019-03-17T06:23:19.157Z,83.50
2019-03-17T06:25:47.869Z,83.00
2019-03-17T06:28:16.625Z,82.90
2019-03-17T06:30:45.429Z,83.20
2019-03-17T06:33:14.328Z,83.70
2019-03-17T06:35:43.077Z,83.20
2019-03-17T06:38:11.841Z,83.30
2019-03-17T06:40:40.547Z,83.30
2019-03-17T06:43:09.274Z,83.20
2019-03-17T06:45:37.985Z,83.60
2019-03-17T06:48:06.758Z,83.30
2019-03-17T06:50:35.473Z,83.10
2019-03-17T06:53:04.326Z,83.20
2019-03-17T06:55:33.025Z,83.40
2019-03-17T06:58:01.769Z,83.50
2019-03-17T07:00:30.469Z,83.80
2019-03-17T07:02:59.165Z,84.10
2019-03-17T07:05:27.926Z,84.30
2019-03-17T07:07:56.652Z,84.40
2019-03-17T07:10:25.371Z,84.90
2019-03-17T07:12:54.090Z,84.90
2019-03-17T07:15:22.893Z,85.00
2019-03-17T07:17:51.633Z,85.20
2019-03-17T07:20:20.451Z,85.40
2019-03-17T07:22:49.177Z,85.80
2019-03-17T07:25:17.890Z,86.20
2019-03-17T07:27:46.681Z,86.30
2019-03-17T07:30:15.690Z,86.10
2019-03-17T07:32:44.541Z,86.60
2019-03-17T07:35:13.339Z,86.70
2019-03-17T07:37:42.077Z,87.50
2019-03-17T07:40:11.401Z,88.10
2019-03-17T07:42:40.118Z,87.40
2019-03-17T07:45:09.033Z,87.80
2019-03-17T07:47:37.776Z,87.40
2019-03-17T07:50:08.173Z,87.10
2019-03-17T07:52:36.886Z,86.60
2019-03-17T07:55:06.183Z,86.00
2019-03-17T07:57:34.913Z,85.10
2019-03-17T08:00:04.137Z,84.00
2019-03-17T08:02:33.153Z,84.00
2019-03-17T08:05:01.892Z,83.90
2019-03-17T08:07:30.606Z,85.00
2019-03-17T08:09:59.431Z,83.90
2019-03-17T08:12:28.289Z,84.50
2019-03-17T08:14:57.853Z,83.90
2019-03-17T08:17:26.934Z,85.50
2019-03-17T08:19:55.781Z,85.90
2019-03-17T08:22:24.508Z,86.00
2019-03-17T08:24:53.233Z,86.20
2019-03-17T08:27:22.027Z,86.00
2019-03-17T08:29:50.840Z,86.70
2019-03-17T08:32:19.557Z,87.00
2019-03-17T08:34:48.275Z,87.80
2019-03-17T08:37:17.084Z,88.00
2019-03-17T08:39:45.797Z,88.50
2019-03-17T08:42:14.526Z,89.10
2019-03-17T08:44:43.245Z,89.30
2019-03-17T08:47:11.930Z,89.80
2019-03-17T08:49:40.662Z,90.00
2019-03-17T08:52:09.350Z,90.20
2019-03-17T08:54:38.069Z,90.00
2019-03-17T08:57:06.809Z,90.00
2019-03-17T08:59:35.510Z,89.20
2019-03-17T09:02:04.301Z,88.10
2019-03-17T09:04:33.010Z,87.10
2019-03-17T09:07:01.725Z,86.60
2019-03-17T09:09:30.465Z,86.50
2019-03-17T09:11:59.192Z,86.30
2019-03-17T09:14:27.929Z,85.70
2019-03-17T09:16:56.654Z,85.80
2019-03-17T09:19:25.429Z,85.50
2019-03-17T09:21:54.144Z,85.30
2019-03-17T09:24:22.850Z,85.00
2019-03-17T09:26:51.598Z,85.30
2019-03-17T09:29:20.460Z,85.50
2019-03-17T09:31:49.152Z,85.40
2019-03-17T09:34:17.883Z,85.50
2019-03-17T09:36:46.616Z,85.20
2019-03-17T09:39:15.485Z,84.70
2019-03-17T09:41:44.321Z,84.70
2019-03-17T09:44:13.055Z,84.50
2019-03-17T09:46:41.754Z,85.00
2019-03-17T09:49:10.614Z,85.90
2019-03-17T09:51:39.422Z,86.40
2019-03-17T09:54:08.193Z,86.90
2019-03-17T09:56:36.945Z,87.60
2019-03-17T09:59:05.731Z,88.00
2019-03-17T10:01:34.438Z,88.10
2019-03-17T10:04:03.237Z,87.90
2019-03-17T10:06:31.971Z,87.80
2019-03-17T10:09:00.685Z,87.40
2019-03-17T10:11:31.654Z,86.60
2019-03-17T10:14:00.502Z,87.00
2019-03-17T10:16:29.258Z,88.20
2019-03-17T10:18:57.986Z,88.60
2019-03-17T10:21:29.174Z,87.60
2019-03-17T10:23:57.898Z,87.10
2019-03-17T10:26:26.709Z,86.30
2019-03-17T10:28:55.489Z,85.30
2019-03-17T10:31:24.287Z,83.80
2019-03-17T10:33:53.102Z,83.70
2019-03-17T10:36:21.883Z,84.10
2019-03-17T10:38:50.754Z,83.80
2019-03-17T10:41:19.485Z,83.90
2019-03-17T10:43:48.203Z,84.00
2019-03-17T10:46:17.108Z,83.60
2019-03-17T10:48:45.861Z,84.00
2019-03-17T10:51:14.689Z,82.60
2019-03-17T10:53:43.428Z,81.40
2019-03-17T10:56:12.207Z,79.90
2019-03-17T10:58:40.898Z,79.00
2019-03-17T11:01:09.602Z,78.60
2019-03-17T11:03:38.349Z,78.90
2019-03-17T11:06:07.049Z,78.70
2019-03-17T11:08:35.778Z,78.50
2019-03-17T11:11:04.721Z,79.10
2019-03-17T11:13:33.449Z,79.00
2019-03-17T11:16:02.245Z,79.70
2019-03-17T11:18:30.957Z,80.30
2019-03-17T11:20:59.681Z,81.30
2019-03-17T11:23:28.385Z,82.20
2019-03-17T11:25:57.134Z,80.00
2019-03-17T11:28:25.846Z,79.40
2019-03-17T11:30:59.327Z,78.50
2019-03-17T11:33:28.197Z,78.70
2019-03-17T11:35:56.975Z,78.70
2019-03-17T11:38:31.729Z,78.80
2019-03-17T11:41:00.449Z,79.50
2019-03-17T11:43:29.189Z,80.00
2019-03-17T11:45:57.882Z,79.00
2019-03-17T11:48:26.598Z,79.80
2019-03-17T11:50:56.896Z,80.20
2019-03-17T11:53:25.605Z,79.80
2019-03-17T11:55:54.647Z,79.40
2019-03-17T11:58:23.429Z,79.50
2019-03-17T12:00:52.205Z,79.20
2019-03-17T12:03:23.246Z,78.80
2019-03-17T12:05:51.401Z,78.30
2019-03-17T12:08:22.913Z,78.80
2019-03-17T12:10:51.718Z,78.60
2019-03-17T12:13:20.413Z,78.00
2019-03-17T12:15:49.197Z,75.70
2019-03-17T12:18:17.998Z,74.60
2019-03-17T12:20:46.726Z,73.70
2019-03-17T12:23:15.460Z,73.90
2019-03-17T12:25:44.258Z,74.20
2019-03-17T12:28:13.012Z,73.70
2019-03-17T12:30:41.787Z,73.20
2019-03-17T12:33:10.487Z,74.60
2019-03-17T12:35:41.965Z,74.50
2019-03-17T12:38:10.665Z,74.20
2019-03-17T12:40:39.380Z,73.90
2019-03-17T12:43:08.145Z,73.80
2019-03-17T12:45:36.881Z,74.00
2019-03-17T12:48:05.824Z,73.80
2019-03-17T12:50:34.699Z,73.00
2019-03-17T12:53:03.590Z,73.10
2019-03-17T12:55:32.342Z,71.30
2019-03-17T12:58:01.156Z,71.30
2019-03-17T13:00:29.883Z,70.10
2019-03-17T13:02:58.998Z,69.10
2019-03-17T13:05:27.847Z,68.80
2019-03-17T13:07:57.715Z,69.40
2019-03-17T13:10:29.288Z,69.50
2019-03-17T13:12:58.310Z,68.70
2019-03-17T13:15:27.182Z,69.10
2019-03-17T13:17:58.729Z,68.50
2019-03-17T13:20:29.644Z,67.60
2019-03-17T13:22:57.949Z,68.10
2019-03-17T13:25:26.680Z,67.50
2019-03-17T13:27:55.473Z,68.40
2019-03-17T13:30:24.198Z,68.30
2019-03-17T13:32:53.213Z,66.80
2019-03-17T13:35:21.934Z,66.00
2019-03-17T13:37:50.633Z,66.30
2019-03-17T13:40:28.665Z,65.30
2019-03-17T13:42:50.054Z,65.90
2019-03-17T13:45:18.864Z,64.50
2019-03-17T13:47:47.848Z,64.60
2019-03-17T13:50:16.734Z,64.80
2019-03-17T13:52:45.566Z,63.20
2019-03-17T13:55:14.692Z,63.70
2019-03-17T13:57:43.786Z,63.30
2019-03-17T14:00:14.394Z,62.80
2019-03-17T14:02:43.174Z,62.10
2019-03-17T14:05:12.578Z,61.50
2019-03-17T14:07:41.421Z,60.90
2019-03-17T14:10:15.020Z,62.20
2019-03-17T14:12:43.627Z,61.60
2019-03-17T14:15:13.410Z,62.60
2019-03-17T14:17:42.567Z,62.20
2019-03-17T14:20:16.731Z,61.80
2019-03-17T14:22:45.744Z,61.60
2019-03-17T14:25:23.337Z,60.50
2019-03-17T14:27:54.246Z,59.70
2019-03-17T14:30:23.079Z,59.20
2019-03-17T14:32:51.942Z,60.00
2019-03-17T14:35:21.741Z,59.80
2019-03-17T14:37:51.995Z,59.40
2019-03-17T14:40:20.714Z,59.30
2019-03-17T14:42:49.567Z,59.80
2019-03-17T14:45:18.285Z,60.10
2019-03-17T14:47:47.429Z,60.10
2019-03-17T14:50:17.153Z,58.40
2019-03-17T14:52:46.351Z,60.20
2019-03-17T14:55:15.759Z,59.50
2019-03-17T14:57:44.547Z,59.70
2019-03-17T15:00:15.586Z,59.00
2019-03-17T15:02:44.461Z,59.70
2019-03-17T15:05:13.684Z,59.90
2019-03-17T15:07:42.457Z,60.90
2019-03-17T15:10:15.916Z,61.60
2019-03-17T15:12:44.678Z,61.40
2019-03-17T15:15:14.238Z,60.90
2019-03-17T15:17:45.601Z,59.30
2019-03-17T15:20:17.976Z,59.40
2019-03-17T15:22:47.192Z,59.10
2019-03-17T15:25:16.209Z,58.30
2019-03-17T15:27:48.036Z,58.30
2019-03-17T15:30:18.899Z,58.30
2019-03-17T15:32:47.677Z,58.40
2019-03-17T15:35:16.543Z,58.50
2019-03-17T15:37:48.591Z,57.50
2019-03-17T15:40:17.648Z,56.90
2019-03-17T15:42:47.174Z,56.60
2019-03-17T15:45:22.214Z,55.60
2019-03-17T15:47:52.617Z,56.70
2019-03-17T15:50:21.662Z,57.00
2019-03-17T15:52:52.739Z,57.40
2019-03-17T15:55:21.693Z,57.70
2019-03-17T15:57:50.588Z,57.50
2019-03-17T16:00:25.571Z,57.50
2019-03-17T16:02:50.693Z,58.00
2019-03-17T16:05:19.822Z,57.30
2019-03-17T16:07:51.884Z,58.20
2019-03-17T16:10:20.865Z,58.30
2019-03-17T16:12:49.653Z,58.30
2019-03-17T16:15:18.509Z,57.50
2019-03-17T16:17:47.343Z,57.10
2019-03-17T16:20:17.681Z,56.50
2019-03-17T16:22:46.401Z,56.40
2019-03-17T16:25:15.971Z,54.60
2019-03-17T16:27:44.785Z,54.70
2019-03-17T16:30:18.444Z,54.30
2019-03-17T16:32:47.327Z,54.20
2019-03-17T16:35:16.089Z,54.10
2019-03-17T16:37:45.354Z,53.10
2019-03-17T16:40:15.333Z,52.90
2019-03-17T16:42:44.100Z,52.70
2019-03-17T16:45:13.451Z,53.10
2019-03-17T16:47:42.174Z,53.10
2019-03-17T16:50:12.345Z,53.10
2019-03-17T16:52:41.042Z,53.80
2019-03-17T16:55:11.492Z,53.90
2019-03-17T16:57:40.537Z,53.90
2019-03-17T17:00:12.275Z,53.90
2019-03-17T17:02:41.002Z,54.20
2019-03-17T17:05:10.182Z,54.60
2019-03-17T17:07:38.997Z,54.50
2019-03-17T17:10:09.307Z,54.80
2019-03-17T17:12:38.057Z,55.00
2019-03-17T17:15:10.754Z,55.30
2019-03-17T17:17:39.641Z,56.00
2019-03-17T17:20:10.504Z,56.40
2019-03-17T17:22:39.226Z,56.50
2019-03-17T17:25:09.705Z,56.70
2019-03-17T17:27:38.478Z,56.90
2019-03-17T17:30:08.128Z,57.00
2019-03-17T17:32:36.862Z,56.50
2019-03-17T17:35:06.245Z,57.60
2019-03-17T17:37:35.157Z,58.40
2019-03-17T17:40:04.893Z,58.50
2019-03-17T17:42:33.662Z,59.30
2019-03-17T17:45:02.479Z,58.90
2019-03-17T17:47:31.213Z,59.10
2019-03-17T17:50:01.197Z,59.70
2019-03-17T17:52:29.936Z,59.00
2019-03-17T17:54:58.664Z,59.20
2019-03-17T17:57:27.438Z,59.40
2019-03-17T17:59:56.254Z,60.00
2019-03-17T18:02:25.027Z,59.70
2019-03-17T18:04:53.771Z,59.90
2019-03-17T18:07:22.625Z,59.80
2019-03-17T18:09:51.421Z,59.20
2019-03-17T18:12:21.400Z,60.10
2019-03-17T18:14:50.363Z,60.30
2019-03-17T18:17:19.098Z,60.00
2019-03-17T18:19:50.592Z,60.00
2019-03-17T18:22:19.307Z,60.20
2019-03-17T18:24:48.030Z,59.80
2019-03-17T18:27:18.221Z,60.00
2019-03-17T18:29:47.187Z,60.20
2019-03-17T18:32:15.962Z,60.30
2019-03-17T18:34:44.665Z,60.40
2019-03-17T18:37:13.544Z,60.50
2019-03-17T18:39:42.317Z,60.90
2019-03-17T18:42:11.068Z,60.80
2019-03-17T18:44:39.773Z,60.60
2019-03-17T18:47:08.701Z,61.00
2019-03-17T18:49:37.449Z,60.60
2019-03-17T18:52:06.233Z,61.00
2019-03-17T18:54:34.985Z,60.90
2019-03-17T18:57:03.925Z,61.40
2019-03-17T18:59:32.693Z,61.70
2019-03-17T19:02:01.437Z,61.70
2019-03-17T19:04:30.189Z,61.90
2019-03-17T19:06:58.885Z,61.80
2019-03-17T19:09:29.829Z,62.50
2019-03-17T19:12:00.540Z,62.10
2019-03-17T19:14:32.091Z,62.00
2019-03-17T19:17:00.985Z,62.30
2019-03-17T19:19:31.874Z,62.00
2019-03-17T19:22:00.713Z,61.90
2019-03-17T19:24:29.833Z,62.60
2019-03-17T19:26:58.573Z,62.40
2019-03-17T19:29:27.296Z,62.40
2019-03-17T19:31:59.135Z,63.50
2019-03-17T19:34:27.911Z,63.40
2019-03-17T19:36:59.190Z,63.60
2019-03-17T19:39:27.901Z,63.30
2019-03-17T19:41:56.629Z,64.20
2019-03-17T19:44:25.511Z,65.10
2019-03-17T19:46:54.229Z,65.80
2019-03-17T19:49:22.949Z,65.40
2019-03-17T19:51:51.673Z,65.80
2019-03-17T19:54:20.430Z,66.40
2019-03-17T19:56:49.145Z,66.30
2019-03-17T19:59:17.873Z,66.10
2019-03-17T20:01:46.637Z,66.50
2019-03-17T20:04:15.555Z,66.20
2019-03-17T20:06:44.319Z,66.50
2019-03-17T20:09:13.143Z,66.70
2019-03-17T20:11:41.957Z,67.20
2019-03-17T20:14:10.701Z,67.30
2019-03-17T20:16:41.478Z,67.40
2019-03-17T20:19:10.246Z,67.80
2019-03-17T20:21:38.949Z,67.90
2019-03-17T20:24:07.745Z,68.20
2019-03-17T20:26:36.633Z,68.30
2019-03-17T20:29:05.336Z,68.40
2019-03-17T20:31:34.136Z,68.40
2019-03-17T20:34:02.896Z,68.50
2019-03-17T20:36:31.561Z,68.80
2019-03-17T20:39:00.375Z,68.80
2019-03-17T20:41:29.352Z,68.80
2019-03-17T20:43:58.125Z,68.10
2019-03-17T20:46:29.246Z,68.70
2019-03-17T20:48:58.029Z,68.40
2019-03-17T20:51:28.688Z,68.80
2019-03-17T20:53:57.480Z,67.80
2019-03-17T20:56:26.498Z,69.00
2019-03-17T20:58:55.158Z,69.40
2019-03-17T21:01:24.033Z,69.70
2019-03-17T21:03:52.738Z,69.70
2019-03-17T21:06:23.070Z,70.30
2019-03-17T21:08:51.813Z,69.90
2019-03-17T21:11:20.702Z,70.60
2019-03-17T21:13:51.285Z,70.80
2019-03-17T21:16:20.005Z,71.00
2019-03-17T21:18:50.449Z,71.50
2019-03-17T21:21:22.790Z,70.80
2019-03-17T21:23:54.334Z,71.60
2019-03-17T21:26:24.378Z,71.90
2019-03-17T21:28:53.034Z,71.90
2019-03-17T21:31:21.843Z,72.10
2019-03-17T21:33:50.553Z,72.30
2019-03-17T21:36:21.174Z,72.20
2019-03-17T21:38:49.974Z,72.10
2019-03-17T21:41:18.813Z,72.30
2019-03-17T21:43:58.786Z,72.30
2019-03-17T21:46:18.137Z,72.60
2019-03-17T21:48:46.909Z,72.50
2019-03-17T21:51:15.641Z,72.40
2019-03-17T21:53:44.361Z,72.80
2019-03-17T21:56:13.246Z,72.80
2019-03-17T21:58:42.293Z,72.90
2019-03-17T22:01:11.040Z,73.00
2019-03-17T22:03:39.741Z,72.90
2019-03-17T22:06:08.449Z,73.10
2019-03-17T22:08:37.233Z,73.40
2019-03-17T22:11:05.957Z,73.60
2019-03-17T22:13:34.665Z,73.50
2019-03-17T22:16:03.455Z,73.90
2019-03-17T22:18:32.163Z,74.10
2019-03-17T22:21:02.362Z,74.00
2019-03-17T22:23:31.095Z,74.30
2019-03-17T22:25:59.813Z,74.30
2019-03-17T22:28:28.545Z,74.60
2019-03-17T22:30:57.289Z,74.60
2019-03-17T22:33:25.998Z,74.30
2019-03-17T22:35:54.857Z,75.10
2019-03-17T22:38:23.721Z,75.20
2019-03-17T22:40:52.467Z,75.20
2019-03-17T22:43:21.162Z,75.50
2019-03-17T22:45:49.896Z,75.70
2019-03-17T22:48:18.615Z,75.70
2019-03-17T22:50:47.319Z,75.70
2019-03-17T22:53:16.065Z,76.20
2019-03-17T22:55:44.833Z,76.30
2019-03-17T22:58:13.554Z,76.20
2019-03-17T23:00:43.694Z,76.50
2019-03-17T23:03:13.085Z,76.40
2019-03-17T23:05:41.851Z,76.60
2019-03-17T23:08:10.580Z,76.70
2019-03-17T23:10:39.430Z,76.80
2019-03-17T23:13:08.211Z,76.60
2019-03-17T23:15:37.083Z,77.00
2019-03-17T23:18:05.966Z,77.30
2019-03-17T23:20:34.825Z,77.10
2019-03-17T23:23:03.583Z,77.00
2019-03-17T23:25:34.958Z,77.00
2019-03-17T23:28:03.756Z,77.50
2019-03-17T23:30:32.493Z,77.60
2019-03-17T23:33:01.208Z,77.40
2019-03-17T23:35:29.917Z,77.70
2019-03-17T23:37:58.697Z,77.70
2019-03-17T23:40:27.458Z,77.80
2019-03-17T23:42:56.162Z,77.90
2019-03-17T23:45:24.881Z,78.30
2019-03-17T23:47:53.611Z,78.10
2019-03-17T23:50:22.334Z,78.40
2019-03-17T23:52:51.037Z,78.50
2019-03-17T23:55:19.748Z,78.40
2019-03-17T23:57:48.467Z,78.90
